createdAt,value
2019-02-21T00:02:49.585Z,68.77
2019-02-21T00:06:08.278Z,68.44
2019-02-21T00:09:16.793Z,67.99
2019-02-21T00:12:25.591Z,68.43
2019-02-21T00:15:34.096Z,68.64
2019-02-21T00:18:42.646Z,68.62
2019-02-21T00:21:51.242Z,68.81
2019-02-21T00:25:10.077Z,68.81
2019-02-21T00:28:18.702Z,69.06
2019-02-21T00:31:27.578Z,69.11
2019-02-21T00:34:36.118Z,69.30
2019-02-21T00:37:44.607Z,68.95
2019-02-21T00:40:53.311Z,68.94
2019-02-21T00:44:02.226Z,68.68
2019-02-21T00:47:10.836Z,68.57
2019-02-21T00:50:19.554Z,68.73
2019-02-21T00:53:28.159Z,68.74
2019-02-21T00:56:47.010Z,69.05
2019-02-21T00:59:55.766Z,69.03
2019-02-21T01:03:04.347Z,68.84
2019-02-21T01:06:12.991Z,69.02
2019-02-21T01:09:21.713Z,69.05
2019-02-21T01:12:30.312Z,69.47
2019-02-21T01:15:38.931Z,69.44
2019-02-21T01:18:47.605Z,69.51
2019-02-21T01:22:06.420Z,69.37
2019-02-21T01:25:15.057Z,69.02
2019-02-21T01:28:23.632Z,69.20
2019-02-21T01:31:32.250Z,68.74
2019-02-21T01:34:41.016Z,68.64
2019-02-21T01:37:49.617Z,68.74
2019-02-21T01:40:58.334Z,68.72
2019-02-21T01:44:06.985Z,68.42
2019-02-21T01:47:25.694Z,68.15
2019-02-21T01:50:34.377Z,68.27
2019-02-21T01:53:42.963Z,68.32
2019-02-21T01:56:51.603Z,68.16
2019-02-21T02:00:00.372Z,68.15
2019-02-21T02:03:09.049Z,68.03
2019-02-21T02:06:17.647Z,67.97
2019-02-21T02:09:26.479Z,68.00
2019-02-21T02:12:35.066Z,67.93
2019-02-21T02:15:53.867Z,68.40
2019-02-21T02:19:02.561Z,68.49
2019-02-21T02:22:10.164Z,68.00
2019-02-21T02:25:29.226Z,68.22
2019-02-21T02:28:37.748Z,67.94
2019-02-21T02:31:47.249Z,67.98
2019-02-21T02:35:07.454Z,67.81
2019-02-21T02:38:16.045Z,67.79
2019-02-21T02:41:24.765Z,67.80
2019-02-21T02:44:33.361Z,67.84
2019-02-21T02:47:41.874Z,67.97
2019-02-21T02:51:00.878Z,68.10
2019-02-21T02:54:09.370Z,68.13
2019-02-21T02:57:17.881Z,68.10
2019-02-21T03:00:26.649Z,67.96
2019-02-21T03:03:35.516Z,67.83
2019-02-21T03:06:44.333Z,67.90
2019-02-21T03:09:52.957Z,67.74
2019-02-21T03:13:02.764Z,67.67
2019-02-21T03:16:21.687Z,67.96
2019-02-21T03:19:41.114Z,67.96
2019-02-21T03:22:49.728Z,67.82
2019-02-21T03:25:58.229Z,67.88
2019-02-21T03:29:06.747Z,68.21
2019-02-21T03:32:15.270Z,68.17
2019-02-21T03:35:24.867Z,68.28
2019-02-21T03:38:35.283Z,69.02
2019-02-21T03:41:44.129Z,68.80
2019-02-21T03:44:52.707Z,68.73
2019-02-21T03:48:01.322Z,69.08
2019-02-21T03:51:10.006Z,69.12
2019-02-21T03:54:18.615Z,69.56
2019-02-21T03:57:27.116Z,70.19
2019-02-21T04:00:46.017Z,70.24
2019-02-21T04:03:54.616Z,70.08
2019-02-21T04:07:03.127Z,69.88
2019-02-21T04:10:11.835Z,69.47
2019-02-21T04:13:20.451Z,69.42
2019-02-21T04:16:27.575Z,69.68
2019-02-21T04:19:36.312Z,70.40
2019-02-21T04:22:45.006Z,70.29
2019-02-21T04:25:53.588Z,70.41
2019-02-21T04:29:12.634Z,70.70
2019-02-21T04:32:21.255Z,70.84
2019-02-21T04:35:29.837Z,70.81
2019-02-21T04:38:38.665Z,70.65
2019-02-21T04:41:47.290Z,70.68
2019-02-21T04:44:55.855Z,70.59
2019-02-21T04:48:04.430Z,70.63
2019-02-21T04:51:13.069Z,70.90
2019-02-21T04:54:31.964Z,70.86
2019-02-21T04:57:40.625Z,70.89
2019-02-21T05:00:49.232Z,71.26
2019-02-21T05:03:57.801Z,71.37
2019-02-21T05:07:06.463Z,71.45
2019-02-21T05:10:15.119Z,71.56
2019-02-21T05:13:23.687Z,71.39
2019-02-21T05:16:44.631Z,71.69
2019-02-21T05:19:52.783Z,71.67
2019-02-21T05:23:01.383Z,72.03
2019-02-21T05:26:11.786Z,72.46
2019-02-21T05:29:20.294Z,72.41
2019-02-21T05:32:52.452Z,72.63
2019-02-21T05:36:27.541Z,72.21
2019-02-21T05:39:54.350Z,72.39
2019-02-21T05:43:21.726Z,72.65
2019-02-21T05:46:59.671Z,72.41
2019-02-21T05:50:26.309Z,72.36
2019-02-21T05:53:43.963Z,72.50
2019-02-21T05:57:03.530Z,72.36
2019-02-21T06:00:40.265Z,72.49
2019-02-21T06:04:23.201Z,72.55
2019-02-21T06:08:20.828Z,72.33
2019-02-21T06:11:54.316Z,72.71
2019-02-21T06:15:20.642Z,72.57
2019-02-21T06:18:45.878Z,72.48
2019-02-21T06:22:10.474Z,72.63
2019-02-21T06:25:24.724Z,72.52
2019-02-21T06:28:45.009Z,72.45
2019-02-21T06:31:53.625Z,72.47
2019-02-21T06:35:03.104Z,72.79
2019-02-21T06:38:22.112Z,72.77
2019-02-21T06:41:32.217Z,72.63
2019-02-21T06:44:40.818Z,72.79
2019-02-21T06:47:49.361Z,72.62
2019-02-21T06:50:58.052Z,73.12
2019-02-21T06:54:16.715Z,73.03
2019-02-21T06:57:25.161Z,72.81
2019-02-21T07:00:33.971Z,73.16
2019-02-21T07:03:42.507Z,72.74
2019-02-21T07:06:51.937Z,72.65
2019-02-21T07:10:00.511Z,72.07
2019-02-21T07:13:09.116Z,72.00
2019-02-21T07:16:17.676Z,72.45
2019-02-21T07:19:26.481Z,72.35
2019-02-21T07:22:35.120Z,72.04
2019-02-21T07:25:56.709Z,72.50
2019-02-21T07:29:05.449Z,72.48
2019-02-21T07:32:12.529Z,72.42
2019-02-21T07:35:21.103Z,72.21
2019-02-21T07:38:40.162Z,71.86
2019-02-21T07:41:50.062Z,71.72
2019-02-21T07:44:59.709Z,70.63
2019-02-21T07:48:18.704Z,70.67
2019-02-21T07:51:27.324Z,70.61
2019-02-21T07:54:35.897Z,71.26
2019-02-21T07:57:44.517Z,70.94
2019-02-21T08:00:54.070Z,70.97
2019-02-21T08:04:13.233Z,71.28
2019-02-21T08:07:21.760Z,71.50
2019-02-21T08:10:33.658Z,71.22
2019-02-21T08:13:40.927Z,71.28
2019-02-21T08:16:49.392Z,71.26
2019-02-21T08:20:07.782Z,71.30
2019-02-21T08:23:08.030Z,71.67
2019-02-21T08:26:26.958Z,71.87
2019-02-21T08:29:35.527Z,71.81
2019-02-21T08:33:01.508Z,71.99
2019-02-21T08:36:09.979Z,72.44
2019-02-21T08:39:28.712Z,72.23
2019-02-21T08:42:37.288Z,72.44
2019-02-21T08:45:45.925Z,72.92
2019-02-21T08:48:54.597Z,73.22
2019-02-21T08:52:03.259Z,72.99
2019-02-21T08:55:11.874Z,72.74
2019-02-21T08:58:20.359Z,72.71
2019-02-21T09:01:39.248Z,72.71
2019-02-21T09:04:47.716Z,72.52
2019-02-21T09:07:56.321Z,72.22
2019-02-21T09:11:04.826Z,72.49
2019-02-21T09:14:13.325Z,72.86
2019-02-21T09:17:32.288Z,72.87
2019-02-21T09:20:40.846Z,72.85
2019-02-21T09:23:49.364Z,72.36
2019-02-21T09:27:00.149Z,71.39
2019-02-21T09:30:14.888Z,70.62
2019-02-21T09:33:23.358Z,69.66
2019-02-21T09:36:41.958Z,69.68
2019-02-21T09:39:50.696Z,69.42
2019-02-21T09:42:59.218Z,69.43
2019-02-21T09:46:07.666Z,69.18
2019-02-21T09:49:16.204Z,68.92
2019-02-21T09:52:34.969Z,68.12
2019-02-21T09:55:43.552Z,68.00
2019-02-21T09:58:52.105Z,66.50
2019-02-21T10:02:00.854Z,65.90
2019-02-21T10:05:08.005Z,65.83
2019-02-21T10:08:16.587Z,66.50
2019-02-21T10:11:25.251Z,66.84
2019-02-21T10:14:33.853Z,67.38
2019-02-21T10:17:52.675Z,68.15
2019-02-21T10:21:01.192Z,68.15
2019-02-21T10:24:09.694Z,68.25
2019-02-21T10:27:18.270Z,68.79
2019-02-21T10:30:26.915Z,68.84
2019-02-21T10:33:47.461Z,69.50
2019-02-21T10:36:55.987Z,70.05
2019-02-21T10:40:04.501Z,70.41
2019-02-21T10:43:13.047Z,70.28
2019-02-21T10:46:21.611Z,69.64
2019-02-21T10:49:30.230Z,69.81
2019-02-21T10:52:49.026Z,69.72
2019-02-21T10:55:57.510Z,69.53
2019-02-21T10:59:06.155Z,69.31
2019-02-21T11:02:14.628Z,69.10
2019-02-21T11:05:23.112Z,69.15
2019-02-21T11:08:42.130Z,69.07
2019-02-21T11:11:50.788Z,69.00
2019-02-21T11:14:59.311Z,69.12
2019-02-21T11:18:07.871Z,69.05
2019-02-21T11:21:16.467Z,68.75
2019-02-21T11:24:24.915Z,68.38
2019-02-21T11:27:43.745Z,68.67
2019-02-21T11:30:52.227Z,68.12
2019-02-21T11:34:00.709Z,67.72
2019-02-21T11:37:09.180Z,67.20
2019-02-21T11:40:17.237Z,66.94
2019-02-21T11:43:25.693Z,67.21
2019-02-21T11:46:34.493Z,67.78
2019-02-21T11:49:42.919Z,67.71
2019-02-21T11:52:51.432Z,67.81
2019-02-21T11:56:15.939Z,68.53
2019-02-21T11:59:24.517Z,67.92
2019-02-21T12:02:38.728Z,68.65
2019-02-21T12:05:43.193Z,69.24
2019-02-21T12:08:51.683Z,69.78
2019-02-21T12:12:10.624Z,70.04
2019-02-21T12:15:19.396Z,69.86
2019-02-21T12:18:27.890Z,70.38
2019-02-21T12:21:37.483Z,70.61
2019-02-21T12:24:56.256Z,70.43
2019-02-21T12:28:04.784Z,70.72
2019-02-21T12:31:13.378Z,70.59
2019-02-21T12:34:21.980Z,71.05
2019-02-21T12:37:32.480Z,71.16
2019-02-21T12:40:41.154Z,71.02
2019-02-21T12:43:49.646Z,70.95
2019-02-21T12:47:08.450Z,70.50
2019-02-21T12:50:17.170Z,71.11
2019-02-21T12:53:28.137Z,71.31
2019-02-21T12:56:36.046Z,71.43
2019-02-21T12:59:44.599Z,71.64
